Time;durP1;ratioP1;P1;durP2;ratioP2;P2;SDS_P1;SDS_P2;PMS_P1;PMS_P2;Temp;Humidity;BMP_temperature;BMP_pressure;BME280_temperature;BME280_humidity;BME280_pressure;Samples;Min_cycle;Max_cycle;Signal;HPM_P1;HPM_P2
2022/10/17 00:01:25;;;;;;;44.08;40.80;;;;;;;2.20;100.00;102668.63;5029959;28;20054;-80
2022/10/17 00:04:03;;;;;;;44.20;40.25;;;;;;;2.48;100.00;102682.47;5022759;28;20053;-81
2022/10/17 00:06:31;;;;;;;46.20;42.53;;;;;;;2.61;100.00;102679.88;5033653;28;20053;-81
2022/10/17 00:09:04;;;;;;;47.35;43.80;;;;;;;2.69;100.00;102681.03;5033491;28;20076;-78
2022/10/17 00:11:54;;;;;;;49.20;45.17;;;;;;;2.50;100.00;102684.06;5018200;28;20046;-81
2022/10/17 00:14:28;;;;;;;48.25;44.53;;;;;;;2.49;100.00;102687.63;5013743;28;20116;-83
2022/10/17 00:16:58;;;;;;;49.65;45.60;;;;;;;2.59;100.00;102679.97;5029524;28;20481;-78
2022/10/17 00:19:35;;;;;;;49.60;45.60;;;;;;;2.63;100.00;102683.22;5025067;28;20049;-81
2022/10/17 00:22:05;;;;;;;50.80;46.83;;;;;;;2.60;100.00;102684.25;5034057;28;20556;-78
2022/10/17 00:24:32;;;;;;;49.58;45.17;;;;;;;2.50;100.00;102685.84;5018626;28;20045;-79
2022/10/17 00:27:00;;;;;;;50.92;46.80;;;;;;;2.55;100.00;102681.13;5014478;28;20046;-79
2022/10/17 00:29:34;;;;;;;48.30;43.97;;;;;;;2.49;100.00;102679.75;5026623;28;20045;-85
2022/10/17 00:32:04;;;;;;;49.78;45.33;;;;;;;2.32;100.00;102681.84;5025663;28;20054;-82
2022/10/17 00:34:31;;;;;;;54.45;49.08;;;;;;;2.33;100.00;102684.38;5022197;28;20119;-79
2022/10/17 00:37:00;;;;;;;49.38;45.03;;;;;;;1.83;100.00;102685.97;5014425;28;20202;-79
2022/10/17 00:39:28;;;;;;;47.47;42.83;;;;;;;2.11;100.00;102684.97;5020787;28;20077;-78
2022/10/17 00:41:57;;;;;;;47.28;43.53;;;;;;;2.18;100.00;102686.25;5026296;28;20049;-79
2022/10/17 00:45:00;;;;;;;46.30;42.55;;;;;;;2.11;100.00;102684.97;5028724;28;20119;-81
2022/10/17 00:47:31;;;;;;;43.88;40.15;;;;;;;2.04;100.00;102683.72;5024929;28;20049;-82
2022/10/17 00:49:59;;;;;;;40.63;37.22;;;;;;;1.56;100.00;102689.44;5020569;28;20050;-79
2022/10/17 00:52:32;;;;;;;41.90;38.60;;;;;;;1.97;100.00;102685.06;5022153;28;20049;-82
2022/10/17 00:55:07;;;;;;;47.40;43.88;;;;;;;2.32;100.00;102692.34;5018374;28;20100;-80
2022/10/17 00:57:35;;;;;;;44.45;41.03;;;;;;;2.39;100.00;102690.97;5026745;28;20493;-81
2022/10/17 01:00:07;;;;;;;43.95;40.42;;;;;;;2.20;100.00;102694.00;5021079;28;20046;-81
2022/10/17 01:02:39;;;;;;;40.13;37.00;;;;;;;1.72;100.00;102689.28;5029246;28;20061;-81
2022/10/17 01:05:14;;;;;;;;;;;;;;;2.00;100.00;102692.72;5032420;28;20103;-82
2022/10/17 01:07:50;;;;;;;40.85;37.95;;;;;;;1.37;100.00;102695.00;5024326;28;19932;-81
2022/10/17 01:10:20;;;;;;;51.90;47.63;;;;;;;1.73;100.00;102695.38;5031660;28;20100;-82
2022/10/17 01:13:03;;;;;;;47.85;44.00;;;;;;;1.76;100.00;102693.38;5031132;28;20107;-78
2022/10/17 01:15:48;;;;;;;47.85;44.08;;;;;;;1.83;100.00;102689.41;5021358;28;20053;-79
2022/10/17 01:18:28;;;;;;;47.08;43.13;;;;;;;1.88;100.00;102689.13;5031879;28;20053;-79
2022/10/17 01:21:31;;;;;;;41.08;37.78;;;;;;;1.67;100.00;102704.47;5028090;28;20099;-82
2022/10/17 01:24:59;;;;;;;48.03;43.85;;;;;;;1.69;100.00;102701.72;5019387;28;20053;-79
2022/10/17 01:27:50;;;;;;;50.50;46.90;;;;;;;1.83;100.00;102702.53;4945508;29;20135;-80
2022/10/17 01:30:49;;;;;;;47.05;43.38;;;;;;;1.76;100.00;102700.41;4945865;29;20480;-83
2022/10/17 01:33:28;;;;;;;47.92;44.30;;;;;;;1.50;100.00;102702.91;5007667;28;20486;-79
2022/10/17 01:36:00;;;;;;;46.47;42.75;;;;;;;1.49;100.00;102700.41;5021032;28;20042;-79
2022/10/17 01:38:33;;;;;;;49.55;45.80;;;;;;;1.47;100.00;102702.28;5029713;28;20053;-79
2022/10/17 01:41:06;;;;;;;49.40;45.33;;;;;;;1.52;100.00;102701.06;5023482;28;20046;-79
2022/10/17 01:43:39;;;;;;;47.20;43.83;;;;;;;1.33;100.00;102705.75;5027317;28;20100;-78
2022/10/17 01:46:15;;;;;;;51.30;47.40;;;;;;;1.48;100.00;102699.53;5022900;28;20545;-78
2022/10/17 01:48:48;;;;;;;46.15;42.17;;;;;;;1.34;100.00;102708.31;5024881;28;20774;-79
2022/10/17 01:51:19;;;;;;;45.33;41.72;;;;;;;0.86;100.00;102712.19;5036274;28;20049;-81
2022/10/17 01:54:00;;;;;;;49.10;45.47;;;;;;;1.22;100.00;102711.69;5024293;28;20054;-81
2022/10/17 01:56:33;;;;;;;46.07;42.00;;;;;;;1.11;100.00;102717.56;5030360;28;20498;-81
2022/10/17 01:59:15;;;;;;;46.50;43.10;;;;;;;1.18;100.00;102719.81;5031308;28;20297;-83
2022/10/17 02:01:45;;;;;;;48.92;45.22;;;;;;;1.36;100.00;102713.41;5133594;23;20496;-80
2022/10/17 02:04:12;;;;;;;47.28;43.72;;;;;;;1.41;100.00;102705.28;5042409;28;20053;-81
2022/10/17 02:06:47;;;;;;;48.85;45.15;;;;;;;1.38;100.00;102724.66;5047228;28;20053;-81
2022/10/17 02:09:19;;;;;;;60.00;54.63;;;;;;;1.02;100.00;102714.69;5041658;28;20058;-83
2022/10/17 02:11:55;;;;;;;57.63;52.47;;;;;;;1.15;100.00;102720.88;5040755;28;20128;-78
2022/10/17 02:14:32;;;;;;;50.22;46.17;;;;;;;1.21;100.00;102722.25;5045712;28;20151;-82
2022/10/17 02:17:11;;;;;;;50.53;46.47;;;;;;;1.13;100.00;102723.56;5046334;28;20124;-81
2022/10/17 02:19:56;;;;;;;46.95;43.15;;;;;;;1.21;100.00;102724.84;5040686;28;20049;-81
2022/10/17 02:22:35;;;;;;;45.47;42.08;;;;;;;1.27;100.00;102722.72;5051370;28;20053;-79
2022/10/17 02:25:12;;;;;;;43.05;39.75;;;;;;;1.12;100.00;102729.75;5040798;28;20045;-80
2022/10/17 02:27:52;;;;;;;45.08;41.90;;;;;;;1.21;100.00;102741.44;5036433;28;20053;-82
2022/10/17 02:30:29;;;;;;;45.58;42.13;;;;;;;1.11;100.00;102735.06;5051898;28;20103;-80
2022/10/17 02:33:01;;;;;;;48.67;44.80;;;;;;;0.77;100.00;102744.16;5048448;28;20492;-81
2022/10/17 02:35:32;;;;;;;47.08;43.28;;;;;;;0.81;100.00;102745.63;5047150;28;20064;-79
2022/10/17 02:38:00;;;;;;;46.88;43.50;;;;;;;0.84;100.00;102737.59;5049500;28;20060;-79
2022/10/17 02:40:31;;;;;;;49.80;45.97;;;;;;;0.82;100.00;102739.47;5046339;28;20053;-81
2022/10/17 02:43:00;;;;;;;47.80;44.00;;;;;;;0.82;100.00;102744.72;5037703;28;20078;-82
2022/10/17 02:45:36;;;;;;;46.17;42.05;;;;;;;0.80;100.00;102757.03;5054638;28;20102;-79
2022/10/17 02:48:09;;;;;;;45.25;41.72;;;;;;;0.78;100.00;102745.81;5036877;28;20465;-81
2022/10/17 02:50:49;;;;;;;59.72;54.08;;;;;;;0.93;100.00;102752.72;5054873;28;20045;-82
2022/10/17 02:53:24;;;;;;;55.00;49.80;;;;;;;0.92;100.00;102751.06;5048204;28;20598;-82
2022/10/17 02:55:58;;;;;;;56.63;51.22;;;;;;;0.75;100.00;102753.84;5052463;28;20443;-83
2022/10/17 02:58:36;;;;;;;58.40;52.65;;;;;;;0.77;100.00;102767.69;5050491;28;20048;-79
2022/10/17 03:01:06;;;;;;;63.45;57.63;;;;;;;0.65;100.00;102758.78;5052259;28;20052;-80
2022/10/17 03:03:34;;;;;;;62.83;56.78;;;;;;;0.77;100.00;102758.06;5052234;28;20107;-80
2022/10/17 03:06:01;;;;;;;70.10;63.03;;;;;;;0.79;100.00;102761.44;5054197;28;20044;-81
2022/10/17 03:08:28;;;;;;;63.75;57.63;;;;;;;0.61;100.00;102762.53;5051327;28;20539;-78
2022/10/17 03:10:54;;;;;;;64.80;59.22;;;;;;;0.52;100.00;102763.91;5044221;28;20178;-83
2022/10/17 03:13:21;;;;;;;68.13;61.58;;;;;;;0.38;100.00;102766.47;5048595;28;20099;-79
2022/10/17 03:15:48;;;;;;;86.30;76.90;;;;;;;0.65;100.00;102769.25;5044033;28;20103;-80
2022/10/17 03:18:15;;;;;;;103.05;73.80;;;;;;;0.32;100.00;102766.84;5038898;28;20111;-78
2022/10/17 03:20:43;;;;;;;93.65;68.25;;;;;;;0.32;100.00;102765.06;5052944;28;20446;-79
2022/10/17 03:23:10;;;;;;;92.90;69.22;;;;;;;0.27;100.00;102768.88;5050169;28;20106;-79
2022/10/17 03:25:36;;;;;;;64.53;57.25;;;;;;;-0.28;100.00;102778.06;5043692;28;20041;-79
2022/10/17 03:28:04;;;;;;;59.70;47.35;;;;;;;0.23;100.00;102771.66;5038542;28;20045;-80
2022/10/17 03:30:31;;;;;;;50.92;46.10;;;;;;;0.33;100.00;102778.97;5044544;28;20037;-79
2022/10/17 03:32:58;;;;;;;51.28;46.40;;;;;;;0.55;100.00;102765.50;5043482;28;20218;-79
2022/10/17 03:35:25;;;;;;;52.97;48.47;;;;;;;0.65;100.00;102783.16;5046869;28;20059;-80
2022/10/17 03:37:55;;;;;;;52.00;46.42;;;;;;;0.51;100.00;102775.28;5045278;28;20115;-82
2022/10/17 03:40:24;;;;;;;49.35;45.08;;;;;;;0.66;100.00;102794.47;5037372;28;20107;-80
2022/10/17 03:42:51;;;;;;;49.22;44.72;;;;;;;0.49;100.00;102787.63;5040217;28;20126;-80
2022/10/17 03:45:22;;;;;;;50.67;46.42;;;;;;;0.79;100.00;102773.69;5046276;28;20060;-81
2022/10/17 03:47:58;;;;;;;55.60;50.58;;;;;;;0.62;100.00;102772.88;5051056;28;20057;-82
2022/10/17 03:50:25;;;;;;;53.70;48.95;;;;;;;0.60;100.00;102779.97;5050147;28;20049;-79
2022/10/17 03:52:54;;;;;;;47.13;42.88;;;;;;;0.54;100.00;102782.94;5043779;28;20048;-79
2022/10/17 03:55:20;;;;;;;49.00;44.80;;;;;;;0.50;100.00;102785.84;5048630;28;20041;-79
2022/10/17 03:57:48;;;;;;;76.95;70.55;;;;;;;0.62;100.00;102791.19;5050282;28;20476;-82
2022/10/17 04:00:25;;;;;;;76.50;69.03;;;;;;;0.58;100.00;102796.72;5040508;28;20476;-79
2022/10/17 04:02:52;;;;;;;78.15;69.93;;;;;;;0.33;100.00;102799.88;5088795;28;20113;-82
2022/10/17 04:05:18;;;;;;;79.38;71.45;;;;;;;0.06;100.00;102804.91;5079577;28;20052;-78
2022/10/17 04:07:51;;;;;;;67.00;60.70;;;;;;;-0.11;100.00;102808.47;5087341;28;20105;-79
2022/10/17 04:10:20;;;;;;;54.67;50.25;;;;;;;0.33;100.00;102805.94;5078054;28;20043;-81
2022/10/17 04:12:47;;;;;;;54.63;49.92;;;;;;;0.50;100.00;102804.16;5091392;28;20101;-81
2022/10/17 04:15:20;;;;;;;56.33;51.25;;;;;;;0.35;100.00;102806.72;5092326;28;20044;-81
2022/10/17 04:17:47;;;;;;;49.50;45.33;;;;;;;0.27;100.00;102808.09;5089383;28;20059;-78
2022/10/17 04:20:16;;;;;;;43.17;39.20;;;;;;;0.47;100.00;102809.56;5086537;28;20052;-79
2022/10/17 04:22:42;;;;;;;42.35;38.97;;;;;;;0.31;100.00;102805.22;5084520;28;20077;-83
2022/10/17 04:25:10;;;;;;;43.88;40.22;;;;;;;0.57;100.00;102808.91;5079713;28;20052;-79
2022/10/17 04:27:39;;;;;;;43.67;40.38;;;;;;;0.56;100.00;102809.88;5073813;28;20044;-79
2022/10/17 04:30:08;;;;;;;43.42;40.30;;;;;;;0.64;100.00;102812.03;5048717;28;20494;-81
2022/10/17 04:32:55;;;;;;;44.35;40.45;;;;;;;0.68;100.00;102808.31;5097854;28;20090;-81
2022/10/17 04:35:28;;;;;;;46.85;43.13;;;;;;;0.47;100.00;102818.25;5089405;28;20097;-79
2022/10/17 04:37:58;;;;;;;44.05;40.38;;;;;;;0.52;100.00;102815.38;5091390;28;20052;-81
2022/10/17 04:40:25;;;;;;;44.53;40.45;;;;;;;0.56;100.00;102825.56;5090871;28;20488;-82
2022/10/17 04:42:59;;;;;;;46.72;42.35;;;;;;;0.54;100.00;102821.34;5093049;28;20040;-82
2022/10/17 04:45:34;;;;;;;47.35;43.55;;;;;;;0.50;100.00;102823.28;5092480;28;20476;-82
2022/10/17 04:48:07;;;;;;;49.80;45.05;;;;;;;0.37;100.00;102824.94;5092162;28;20427;-82
2022/10/17 04:50:39;;;;;;;51.55;46.38;;;;;;;0.43;100.00;102830.66;5083119;28;20044;-79
2022/10/17 04:53:09;;;;;;;50.83;45.50;;;;;;;0.16;100.00;102838.28;5089435;28;20070;-77
2022/10/17 04:55:40;;;;;;;52.67;47.28;;;;;;;0.04;100.00;102841.59;5091576;28;20060;-81
2022/10/17 04:58:12;;;;;;;58.45;52.65;;;;;;;0.59;100.00;102832.38;5090164;28;20048;-82
2022/10/17 05:00:40;;;;;;;57.78;49.97;;;;;;;0.04;100.00;102852.03;5086363;28;20052;-81
2022/10/17 05:03:07;;;;;;;53.83;48.50;;;;;;;0.68;100.00;102840.53;5090915;28;20052;-79
2022/10/17 05:05:40;;;;;;;51.22;46.15;;;;;;;0.87;100.00;102845.53;5091704;28;20069;-82
2022/10/17 05:08:08;;;;;;;48.58;44.00;;;;;;;1.14;100.00;102856.13;5089518;28;20059;-78
2022/10/17 05:10:37;;;;;;;44.38;40.60;;;;;;;0.96;100.00;102856.38;5081235;28;20048;-80
2022/10/17 05:13:04;;;;;;;45.78;41.67;;;;;;;1.21;100.00;102856.63;5088652;28;20126;-78
2022/10/17 05:15:33;;;;;;;44.33;40.70;;;;;;;1.34;100.00;102851.47;5075875;28;20077;-78
2022/10/17 05:18:02;;;;;;;46.40;42.13;;;;;;;1.21;100.00;102854.00;5086168;28;20106;-82
2022/10/17 05:20:31;;;;;;;46.33;42.40;;;;;;;1.81;100.00;102851.13;5087263;28;20052;-82
2022/10/17 05:22:59;;;;;;;44.50;40.50;;;;;;;2.03;100.00;102858.50;5092297;28;20128;-79
2022/10/17 05:25:26;;;;;;;44.95;41.15;;;;;;;2.18;100.00;102861.94;5088859;28;20068;-79
2022/10/17 05:27:53;;;;;;;48.00;44.13;;;;;;;2.21;100.00;102860.84;5095266;28;20500;-80
2022/10/17 05:30:20;;;;;;;47.33;43.55;;;;;;;2.49;100.00;102858.13;5089914;28;20062;-81
2022/10/17 05:32:52;;;;;;;48.15;43.80;;;;;;;2.68;100.00;102863.00;5091129;28;20373;-81
2022/10/17 05:35:19;;;;;;;46.45;42.45;;;;;;;2.63;100.00;102866.88;5092013;28;20044;-77
2022/10/17 05:37:46;;;;;;;49.13;45.05;;;;;;;2.77;100.00;102868.59;5092200;28;20132;-79
2022/10/17 05:40:13;;;;;;;48.28;44.42;;;;;;;2.78;100.00;102875.50;5084038;28;20488;-80
2022/10/17 05:42:39;;;;;;;51.95;47.40;;;;;;;2.99;100.00;102866.19;5094011;28;20052;-79
2022/10/17 05:45:08;;;;;;;46.90;43.60;;;;;;;3.13;100.00;102881.88;5088331;28;20071;-80
2022/10/17 05:47:35;;;;;;;46.88;43.42;;;;;;;3.26;100.00;102887.13;5094050;28;20051;-82
2022/10/17 05:50:03;;;;;;;46.67;43.00;;;;;;;3.35;100.00;102883.03;5094468;28;20449;-81
2022/10/17 05:52:30;;;;;;;43.72;40.33;;;;;;;3.16;100.00;102880.81;5093737;28;20117;-79
2022/10/17 05:54:57;;;;;;;42.70;39.60;;;;;;;3.46;100.00;102890.19;5092488;28;20372;-81
2022/10/17 05:57:25;;;;;;;42.10;38.78;;;;;;;3.86;100.00;102902.19;5086168;28;20385;-79
2022/10/17 05:59:57;;;;;;;40.35;37.40;;;;;;;4.35;100.00;102905.72;5087150;28;20054;-78
2022/10/17 06:02:25;;;;;;;42.33;38.92;;;;;;;4.20;100.00;102906.84;5082601;28;20119;-81
2022/10/17 06:04:51;;;;;;;42.97;39.47;;;;;;;4.41;100.00;102902.63;5089087;28;20044;-80
2022/10/17 06:07:19;;;;;;;47.83;44.25;;;;;;;4.51;100.00;102908.94;5089727;28;20045;-78
2022/10/17 06:09:46;;;;;;;49.80;46.60;;;;;;;4.94;100.00;102903.09;5086551;28;20048;-80
2022/10/17 06:12:13;;;;;;;42.28;38.95;;;;;;;5.18;100.00;102904.84;5091603;28;20052;-79
2022/10/17 06:14:41;;;;;;;41.67;38.53;;;;;;;5.10;100.00;102909.84;5094521;28;20476;-78
2022/10/17 06:17:10;;;;;;;43.20;40.00;;;;;;;5.67;100.00;102909.78;5087585;28;20529;-81
2022/10/17 06:19:40;;;;;;;44.03;40.20;;;;;;;5.45;100.00;102907.97;5082877;28;20052;-82
2022/10/17 06:22:08;;;;;;;42.40;39.30;;;;;;;5.68;100.00;102911.44;5083672;28;20458;-80
2022/10/17 06:24:43;;;;;;;42.00;39.00;;;;;;;6.16;100.00;102913.81;5078843;28;20097;-82
2022/10/17 06:27:10;;;;;;;42.55;39.58;;;;;;;5.94;100.00;102919.16;5089599;28;20051;-79
2022/10/17 06:29:44;;;;;;;42.00;39.10;;;;;;;6.31;100.00;102913.56;5092436;28;20492;-81
2022/10/17 06:32:16;;;;;;;47.10;43.70;;;;;;;6.66;100.00;102921.25;5085436;28;20114;-79
2022/10/17 06:34:47;;;;;;;56.63;53.13;;;;;;;6.92;100.00;102920.88;5082342;28;20109;-83
2022/10/17 06:37:15;;;;;;;45.00;41.90;;;;;;;6.77;100.00;102923.00;5085568;28;20480;-79
2022/10/17 06:40:01;;;;;;;42.47;39.70;;;;;;;6.89;100.00;102917.50;5090517;28;20364;-82
2022/10/17 06:42:29;;;;;;;43.20;40.25;;;;;;;7.40;100.00;102929.13;5090655;28;20102;-81
2022/10/17 06:44:56;;;;;;;43.17;40.20;;;;;;;7.62;100.00;102927.25;5088090;28;20109;-79
2022/10/17 06:47:27;;;;;;;40.80;38.42;;;;;;;7.65;100.00;102929.66;5087181;28;20569;-80
2022/10/17 06:49:53;;;;;;;52.05;48.60;;;;;;;8.14;100.00;102926.22;5081883;28;20063;-80
2022/10/17 06:52:23;;;;;;;42.38;39.42;;;;;;;8.59;100.00;102932.81;5088580;28;20043;-78
2022/10/17 06:54:51;;;;;;;41.65;38.60;;;;;;;9.16;100.00;102933.75;5086668;28;20121;-84
2022/10/17 06:57:19;;;;;;;43.63;40.38;;;;;;;9.62;100.00;102929.44;5090380;28;20384;-82
2022/10/17 06:59:46;;;;;;;44.67;41.28;;;;;;;10.08;100.00;102930.38;5086309;28;20045;-82
2022/10/17 07:02:13;;;;;;;43.53;40.33;;;;;;;10.32;100.00;102933.31;5085672;28;20045;-81
2022/10/17 07:04:40;;;;;;;42.10;39.30;;;;;;;10.33;100.00;102928.84;5081735;28;20113;-79
2022/10/17 07:07:06;;;;;;;44.17;40.90;;;;;;;11.34;100.00;102917.84;5084215;28;20049;-79
2022/10/17 07:09:33;;;;;;;43.28;40.28;;;;;;;10.68;100.00;102919.19;5084338;28;20051;-79
2022/10/17 07:12:00;;;;;;;42.72;39.92;;;;;;;11.37;100.00;102921.00;5089841;28;20055;-78
2022/10/17 07:14:30;;;;;;;44.15;40.78;;;;;;;12.12;100.00;102923.03;5089797;28;20040;-81
2022/10/17 07:16:58;;;;;;;51.53;48.38;;;;;;;11.67;100.00;102918.84;5087291;28;20458;-80
2022/10/17 07:19:26;;;;;;;43.85;40.80;;;;;;;11.96;100.00;102915.00;5080778;28;20480;-82
2022/10/17 07:21:55;;;;;;;43.38;40.42;;;;;;;12.38;100.00;102926.44;5080279;28;20082;-80
2022/10/17 07:24:28;;;;;;;43.47;40.13;;;;;;;12.80;100.00;102925.47;5081838;28;20055;-79
2022/10/17 07:26:55;;;;;;;54.20;50.67;;;;;;;12.74;100.00;102928.81;5085478;28;20044;-81
2022/10/17 07:29:22;;;;;;;42.08;39.28;;;;;;;13.63;100.00;102919.00;5085840;28;20390;-81
2022/10/17 07:31:51;;;;;;;64.70;60.90;;;;;;;14.18;100.00;102925.25;5080982;28;20105;-79
2022/10/17 07:34:18;;;;;;;51.83;48.38;;;;;;;14.40;100.00;102918.25;5084000;28;20048;-80
2022/10/17 07:36:45;;;;;;;58.97;55.20;;;;;;;14.64;100.00;102919.94;5086593;28;20040;-78
2022/10/17 07:39:13;;;;;;;69.85;65.47;;;;;;;15.69;94.81;102919.91;5083743;28;20114;-79
2022/10/17 07:41:46;;;;;;;43.55;40.53;;;;;;;15.10;100.00;102926.06;5087191;28;20384;-79
2022/10/17 07:44:14;;;;;;;68.97;64.57;;;;;;;16.29;95.70;102923.28;5029067;27;20048;-83
2022/10/17 07:46:44;;;;;;;62.47;58.70;;;;;;;16.26;88.25;102923.66;5084359;28;20044;-79
2022/10/17 07:49:12;;;;;;;59.05;55.28;;;;;;;15.91;88.70;102918.09;5080598;28;20506;-83
2022/10/17 07:51:39;;;;;;;44.47;41.13;;;;;;;16.21;81.56;102918.03;5088964;28;20463;-82
2022/10/17 07:54:12;;;;;;;45.35;42.00;;;;;;;15.49;87.97;102916.09;5089915;28;20541;-78
2022/10/17 07:56:40;;;;;;;44.63;41.53;;;;;;;13.50;100.00;102916.88;5091945;28;20127;-81
2022/10/17 07:59:09;;;;;;;42.15;39.15;;;;;;;16.32;93.87;102917.53;5088882;28;20040;-78
2022/10/17 08:01:36;;;;;;;59.15;55.47;;;;;;;15.68;96.03;102914.75;5087524;28;20052;-82
2022/10/17 08:04:03;;;;;;;41.53;38.67;;;;;;;15.16;100.00;102918.28;5089763;28;20056;-78
2022/10/17 08:06:31;;;;;;;45.78;42.45;;;;;;;17.35;85.72;102915.31;5084200;28;20109;-81
2022/10/17 08:09:00;;;;;;;53.22;50.17;;;;;;;17.64;70.03;102922.28;5091976;28;20105;-77
2022/10/17 08:11:29;;;;;;;43.72;40.90;;;;;;;17.59;63.73;102909.44;5084950;28;20381;-81
2022/10/17 08:13:56;;;;;;;44.70;41.30;;;;;;;19.13;56.86;102906.00;5089996;28;20059;-80
2022/10/17 08:16:25;;;;;;;63.70;59.47;;;;;;;19.58;52.58;102911.47;5079967;28;20056;-83
2022/10/17 08:18:52;;;;;;;46.97;43.22;;;;;;;19.20;54.46;102914.06;5088055;28;20435;-82
2022/10/17 08:21:27;;;;;;;45.80;42.33;;;;;;;17.86;60.69;102906.91;5092530;28;20055;-81
2022/10/17 08:23:57;;;;;;;45.40;42.10;;;;;;;17.36;64.59;102907.03;5080004;28;20056;-80
2022/10/17 08:26:24;;;;;;;70.25;65.55;;;;;;;18.19;56.29;102906.16;5089263;28;20146;-78
2022/10/17 08:28:51;;;;;;;45.38;41.63;;;;;;;16.88;68.44;102908.78;5090639;28;20472;-78
2022/10/17 08:31:20;;;;;;;62.25;58.13;;;;;;;17.68;62.13;102904.72;5091999;28;20043;-81
2022/10/17 08:33:50;;;;;;;46.70;43.38;;;;;;;19.28;61.30;102894.97;5089813;28;20447;-78
2022/10/17 08:36:20;;;;;;;67.72;63.67;;;;;;;17.56;61.55;102907.16;5091697;28;20109;-81
2022/10/17 08:38:47;;;;;;;61.13;56.97;;;;;;;16.81;59.93;102908.72;5082302;28;20076;-82
2022/10/17 08:41:27;;;;;;;47.58;43.63;;;;;;;17.12;62.30;102918.25;5090532;28;20056;-79
2022/10/17 08:44:05;;;;;;;47.10;43.63;;;;;;;17.79;63.87;102906.03;5083674;28;20048;-78
2022/10/17 08:46:35;;;;;;;47.65;43.60;;;;;;;19.27;53.60;102906.78;5084692;28;20125;-79
2022/10/17 08:49:04;;;;;;;48.15;44.67;;;;;;;19.31;52.39;102905.34;5057049;28;20056;-80
2022/10/17 08:51:34;;;;;;;58.70;54.20;;;;;;;17.25;59.49;102910.28;5086489;28;20044;-78
2022/10/17 08:54:09;;;;;;;46.92;42.97;;;;;;;19.70;50.16;102902.72;5079832;28;20049;-79
2022/10/17 08:56:42;;;;;;;46.78;42.75;;;;;;;16.36;56.30;102907.25;5080065;28;20376;-80
2022/10/17 08:59:12;;;;;;;50.60;46.60;;;;;;;18.79;60.02;102904.38;5082652;28;20361;-79
2022/10/17 09:01:46;;;;;;;44.65;41.00;;;;;;;18.46;52.45;102905.16;5089065;28;20129;-78
2022/10/17 09:04:34;;;;;;;45.25;41.58;;;;;;;19.02;52.44;102903.94;5092527;28;20056;-81
2022/10/17 09:07:09;;;;;;;48.10;44.42;;;;;;;17.40;53.38;102904.81;5084841;28;20113;-79
2022/10/17 09:09:44;;;;;;;47.58;43.78;;;;;;;19.50;51.75;102905.47;5080281;28;20117;-78
2022/10/17 09:12:20;;;;;;;46.22;42.65;;;;;;;19.76;46.30;102908.13;5093452;28;20488;-81
2022/10/17 09:15:21;;;;;;;48.92;44.50;;;;;;;19.88;50.68;102897.47;5095027;28;20052;-79
2022/10/17 09:17:53;;;;;;;48.17;44.72;;;;;;;19.19;48.72;102913.22;5081717;28;20048;-81
2022/10/17 09:20:22;;;;;;;48.33;44.87;;;;;;;21.11;45.28;102912.34;5093592;28;20047;-82
2022/10/17 09:22:55;;;;;;;49.03;45.63;;;;;;;22.04;41.88;102897.72;5078143;28;20295;-79
2022/10/17 09:25:22;;;;;;;96.28;90.82;;;;;;;19.34;46.33;102906.78;5086181;28;20060;-79
2022/10/17 09:27:54;;;;;;;50.45;46.80;;;;;;;21.83;45.44;102902.56;5083602;28;20040;-81
2022/10/17 09:30:37;;;;;;;51.17;47.42;;;;;;;20.59;41.69;102904.50;5092432;28;20453;-79
2022/10/17 09:33:12;;;;;;;50.40;46.38;;;;;;;20.64;42.33;102901.16;5087942;28;20117;-79
2022/10/17 09:35:41;;;;;;;49.15;45.75;;;;;;;20.14;47.09;102902.69;5087096;28;20139;-81
2022/10/17 09:38:16;;;;;;;51.72;47.75;;;;;;;22.80;42.03;102891.50;5087569;28;20044;-78
2022/10/17 09:40:46;;;;;;;51.20;47.50;;;;;;;18.98;42.09;102898.16;5084060;28;20058;-78
2022/10/17 09:43:15;;;;;;;50.50;46.60;;;;;;;20.00;47.57;102890.34;5086886;28;20063;-82
2022/10/17 09:45:55;;;;;;;51.30;47.65;;;;;;;21.33;43.65;102891.94;5081765;28;20546;-80
2022/10/17 09:48:31;;;;;;;51.50;47.90;;;;;;;20.47;42.70;102892.72;5093460;28;20142;-81
2022/10/17 09:50:59;;;;;;;49.90;45.88;;;;;;;20.86;40.21;102883.50;5092136;28;20130;-80
2022/10/17 09:53:37;;;;;;;52.20;48.80;;;;;;;22.12;39.08;102881.16;5088957;28;20377;-82
2022/10/17 09:56:11;;;;;;;51.60;47.58;;;;;;;22.21;41.51;102882.50;5085465;28;20052;-80
2022/10/17 09:58:44;;;;;;;50.38;45.80;;;;;;;22.53;39.10;102880.31;5084283;28;20113;-82
2022/10/17 10:01:20;;;;;;;49.20;45.00;;;;;;;23.20;37.74;102871.00;5083298;28;20106;-83
2022/10/17 10:03:49;;;;;;;47.88;44.63;;;;;;;23.80;35.29;102884.16;5088601;28;20382;-79
2022/10/17 10:06:18;;;;;;;47.42;44.20;;;;;;;24.26;35.14;102874.13;5078178;28;20044;-82
2022/10/17 10:08:51;;;;;;;46.75;43.22;;;;;;;24.23;34.82;102871.91;5089956;28;20044;-82
2022/10/17 10:11:19;;;;;;;;;;;;;;;25.69;34.04;102862.53;5083307;28;20052;-78
2022/10/17 10:13:49;;;;;;;48.10;44.85;;;;;;;24.59;33.73;102875.22;5086339;28;19924;-82
2022/10/17 10:16:20;;;;;;;46.90;43.60;;;;;;;23.39;32.92;102867.09;5085028;28;20052;-82
2022/10/17 10:18:49;;;;;;;46.70;43.70;;;;;;;24.33;34.89;102868.56;5085614;28;20044;-82
2022/10/17 10:21:18;;;;;;;47.10;43.75;;;;;;;24.11;34.82;102861.09;5088048;28;20720;-80
2022/10/17 10:24:02;;;;;;;49.17;45.50;;;;;;;25.32;32.41;102865.91;5086170;28;20048;-82
2022/10/17 10:26:33;;;;;;;48.95;45.50;;;;;;;23.15;33.69;102860.03;5088442;28;20052;-80
2022/10/17 10:29:05;;;;;;;52.07;48.20;;;;;;;24.93;35.03;102859.66;5083809;28;20450;-83
2022/10/17 10:31:35;;;;;;;51.80;48.38;;;;;;;22.62;34.70;102857.25;5081931;28;20701;-80
2022/10/17 10:34:14;;;;;;;45.50;42.05;;;;;;;23.91;33.76;102849.91;5092969;28;20044;-82
2022/10/17 10:36:48;;;;;;;42.35;39.58;;;;;;;25.17;30.57;102841.25;5091936;28;20044;-83
2022/10/17 10:39:36;;;;;;;43.22;40.00;;;;;;;24.40;32.67;102844.75;5085892;28;20164;-79
2022/10/17 10:42:09;;;;;;;44.20;41.55;;;;;;;25.27;31.61;102846.84;5080848;28;20048;-81
2022/10/17 10:44:40;;;;;;;45.17;42.55;;;;;;;23.71;34.11;102842.22;5089730;28;20109;-82
2022/10/17 10:47:21;;;;;;;44.28;41.53;;;;;;;24.25;31.59;102839.91;5087620;28;20409;-81
2022/10/17 10:49:51;;;;;;;43.15;40.80;;;;;;;24.49;32.98;102834.34;5079077;28;20048;-81
2022/10/17 10:52:32;;;;;;;43.83;41.22;;;;;;;24.55;31.98;102830.63;5082183;28;20048;-81
2022/10/17 10:55:22;;;;;;;45.72;42.88;;;;;;;25.97;30.84;102820.66;5079549;28;20464;-80
2022/10/17 10:57:53;;;;;;;45.95;42.75;;;;;;;25.09;30.80;102822.66;5078770;28;20040;-80
2022/10/17 11:00:28;;;;;;;41.05;38.15;;;;;;;26.66;30.93;102817.09;5085177;28;20419;-81
2022/10/17 11:03:01;;;;;;;39.58;36.95;;;;;;;25.72;31.02;102799.44;5084274;28;20538;-82
2022/10/17 11:05:39;;;;;;;40.20;37.42;;;;;;;25.56;31.42;102803.91;5085502;28;20040;-79
2022/10/17 11:08:11;;;;;;;41.83;38.80;;;;;;;23.58;31.97;102808.06;5090403;28;20056;-82
2022/10/17 11:10:44;;;;;;;41.58;38.88;;;;;;;24.70;31.55;102811.81;5088394;28;20485;-80
2022/10/17 11:13:17;;;;;;;38.42;35.90;;;;;;;25.19;31.29;102809.22;5084549;28;20080;-79
2022/10/17 11:15:52;;;;;;;40.75;38.10;;;;;;;25.56;30.77;102803.91;5086894;28;20059;-79
2022/10/17 11:18:24;;;;;;;44.25;40.90;;;;;;;25.65;30.58;102808.88;5087959;28;20067;-82
2022/10/17 11:20:56;;;;;;;44.90;41.92;;;;;;;25.47;31.77;102796.47;5084781;28;20441;-80
2022/10/17 11:23:30;;;;;;;45.22;42.38;;;;;;;26.17;30.16;102791.94;5085655;28;20084;-80
2022/10/17 11:26:00;;;;;;;45.42;42.53;;;;;;;26.70;30.59;102785.47;5078459;28;20045;-82
2022/10/17 11:28:30;;;;;;;38.72;36.38;;;;;;;25.40;31.07;102782.25;5075828;28;20114;-82
2022/10/17 11:31:02;;;;;;;51.47;48.05;;;;;;;22.81;33.57;102787.53;5087455;28;20237;-77